Terminal Aerodrome Forecast
Issued by NWS Chicago, IL

Home | Current Version | Previous Version | Graphics & Text | Print | Product List | Glossary On
Versions: 1 2 3 4 5 6 7 8 9 10 11 12 13 14 15 16 17 18 19 20 21 22 23 24 25 26 27 28 29 30 31 32 33 34 35
000
FTUS43 KLOT 260300 AAA
TAFRFD
TAF AMD
KRFD 260303Z 2603/2624 04010KT 1 1/2SM -SN OVC025
     FM260400 02011KT 4SM -SN OVC025
     FM260700 02011KT P6SM -SN BKN025 OVC035
     FM261200 01012KT P6SM BKN035
     FM262100 35010KT P6SM SCT050=

USA.gov is the U.S. government's official web portal to all federal, state and local government web resources and services.